createdAt,value
2023-03-20T00:01:47.673Z,7.05
2023-03-20T00:04:51.479Z,7.10
2023-03-20T00:07:55.832Z,8.88
2023-03-20T00:10:59.204Z,7.23
2023-03-20T00:14:04.315Z,7.70
2023-03-20T00:17:18.395Z,7.70
2023-03-20T00:20:22.823Z,7.03
2023-03-20T00:23:25.827Z,7.00
2023-03-20T00:26:35.118Z,7.10
2023-03-20T00:29:38.542Z,6.93
2023-03-20T00:32:43.195Z,7.70
2023-03-20T00:35:47.930Z,7.47
2023-03-20T00:38:52.068Z,7.05
2023-03-20T00:42:06.805Z,6.87
2023-03-20T00:45:17.746Z,7.10
2023-03-20T00:48:21.470Z,6.72
2023-03-20T00:51:26.223Z,7.28
2023-03-20T00:54:29.279Z,6.97
2023-03-20T00:57:44.953Z,7.40
2023-03-20T01:00:48.467Z,7.10
2023-03-20T01:03:52.205Z,8.23
2023-03-20T01:06:55.730Z,7.55
2023-03-20T01:09:58.758Z,8.35
2023-03-20T01:13:02.589Z,6.80
2023-03-20T01:16:06.499Z,8.07
2023-03-20T01:19:14.704Z,7.40
2023-03-20T01:22:18.378Z,7.25
2023-03-20T01:25:21.661Z,6.85
2023-03-20T01:28:25.471Z,6.17
2023-03-20T01:31:28.959Z,6.60
2023-03-20T01:34:32.134Z,6.75
2023-03-20T01:37:35.057Z,6.95
2023-03-20T01:41:03.040Z,7.53
2023-03-20T01:44:27.540Z,7.27
2023-03-20T01:47:33.546Z,6.87
2023-03-20T01:50:37.978Z,6.75
2023-03-20T01:53:51.417Z,6.93
2023-03-20T01:57:00.543Z,7.20
2023-03-20T02:00:12.018Z,7.30
2023-03-20T02:03:20.183Z,6.97
2023-03-20T02:06:52.295Z,7.00
2023-03-20T02:10:27.933Z,6.53
2023-03-20T02:13:44.183Z,6.78
2023-03-20T02:16:48.732Z,7.50
2023-03-20T02:20:10.152Z,7.47
2023-03-20T02:23:41.053Z,7.38
2023-03-20T02:26:51.710Z,7.43
2023-03-20T02:30:07.012Z,6.65
2023-03-20T02:33:44.097Z,6.93
2023-03-20T02:36:50.580Z,5.97
2023-03-20T02:40:08.901Z,6.43
2023-03-20T02:43:35.024Z,6.85
2023-03-20T02:46:41.225Z,7.05
2023-03-20T02:50:06.801Z,6.70
2023-03-20T02:53:40.453Z,7.37
2023-03-20T03:00:39.585Z,7.50
2023-03-20T03:03:54.720Z,6.97
2023-03-20T03:06:59.477Z,6.40
2023-03-20T03:10:08.420Z,6.23
2023-03-20T03:13:15.792Z,5.30
2023-03-20T03:16:24.646Z,7.53
2023-03-20T03:19:29.705Z,6.45
2023-03-20T03:22:34.697Z,7.67
2023-03-20T03:25:41.729Z,5.60
2023-03-20T03:28:48.647Z,6.72
2023-03-20T03:31:53.114Z,6.90
2023-03-20T03:34:57.000Z,6.25
2023-03-20T03:38:23.382Z,5.97
2023-03-20T03:41:49.707Z,5.83
2023-03-20T03:45:15.784Z,5.78
2023-03-20T03:48:30.428Z,4.93
2023-03-20T03:51:38.640Z,5.30
2023-03-20T03:55:15.504Z,6.40
2023-03-20T03:58:49.772Z,5.20
2023-03-20T04:01:55.115Z,5.28
2023-03-20T04:05:02.385Z,5.70
2023-03-20T04:08:07.933Z,5.95
2023-03-20T04:11:20.489Z,5.53
2023-03-20T04:14:24.233Z,5.70
2023-03-20T04:17:27.813Z,5.40
2023-03-20T04:20:30.965Z,6.88
2023-03-20T04:23:34.348Z,7.35
2023-03-20T04:26:37.440Z,7.40
2023-03-20T04:29:40.964Z,7.53
2023-03-20T04:33:13.159Z,6.47
2023-03-20T04:36:23.096Z,7.13
2023-03-20T04:39:28.645Z,7.53
2023-03-20T04:42:31.905Z,6.57
2023-03-20T04:45:39.867Z,6.97
2023-03-20T04:48:44.469Z,6.55
2023-03-20T04:51:48.412Z,6.95
2023-03-20T04:54:56.045Z,6.50
2023-03-20T04:58:00.191Z,6.53
2023-03-20T05:01:05.858Z,6.20
2023-03-20T05:04:09.269Z,6.45
2023-03-20T05:07:13.360Z,6.10
2023-03-20T05:10:39.377Z,6.82
2023-03-20T05:13:54.926Z,7.83
2023-03-20T05:17:19.756Z,6.37
2023-03-20T05:20:42.492Z,5.78
2023-03-20T05:24:02.759Z,7.47
2023-03-20T05:27:39.682Z,7.38
2023-03-20T05:31:03.041Z,6.33
2023-03-20T05:34:15.524Z,6.43
2023-03-20T05:37:21.014Z,5.95
2023-03-20T05:40:43.314Z,7.07
2023-03-20T05:43:49.659Z,6.75
2023-03-20T05:47:24.235Z,6.43
2023-03-20T05:50:35.606Z,6.93
2023-03-20T05:53:59.439Z,7.45
2023-03-20T05:57:30.336Z,7.88
2023-03-20T06:00:52.227Z,8.23
2023-03-20T06:04:18.185Z,7.60
2023-03-20T06:07:40.196Z,7.23
2023-03-20T06:10:50.922Z,7.78
2023-03-20T06:13:56.014Z,6.75
2023-03-20T06:17:03.649Z,6.63
2023-03-20T06:20:07.578Z,7.70
2023-03-20T06:23:11.288Z,7.07
2023-03-20T06:26:14.500Z,7.13
2023-03-20T06:29:44.368Z,6.32
2023-03-20T06:32:55.056Z,6.72
2023-03-20T06:36:01.403Z,7.20
2023-03-20T06:39:08.631Z,6.30
2023-03-20T06:45:31.023Z,6.78
2023-03-20T06:48:41.705Z,5.90
2023-03-20T06:51:45.596Z,7.55
2023-03-20T06:54:49.090Z,6.93
2023-03-20T06:57:52.800Z,7.63
2023-03-20T07:00:56.498Z,6.25
2023-03-20T07:04:02.087Z,6.75
2023-03-20T07:07:18.667Z,6.70
2023-03-20T07:10:38.595Z,6.90
2023-03-20T07:13:49.922Z,7.72
2023-03-20T07:17:27.574Z,6.75
2023-03-20T07:20:31.962Z,6.97
2023-03-20T07:23:38.738Z,7.63
2023-03-20T07:26:43.285Z,5.50
2023-03-20T07:29:48.716Z,6.05
2023-03-20T07:32:56.332Z,8.02
2023-03-20T07:36:07.750Z,7.72
2023-03-20T07:39:13.373Z,7.78
2023-03-20T07:42:21.955Z,7.17
2023-03-20T07:45:45.391Z,7.13
2023-03-20T07:48:53.484Z,7.28
2023-03-20T07:52:00.597Z,4.75
2023-03-20T07:55:06.460Z,4.30
2023-03-20T07:58:10.564Z,4.80
2023-03-20T08:01:17.159Z,4.80
2023-03-20T08:04:23.223Z,5.18
2023-03-20T08:07:27.050Z,5.63
2023-03-20T08:10:31.350Z,4.55
2023-03-20T08:13:34.710Z,4.70
2023-03-20T08:16:37.929Z,5.03
2023-03-20T08:19:41.291Z,4.72
2023-03-20T08:22:45.328Z,5.15
2023-03-20T08:25:54.564Z,4.72
2023-03-20T08:28:59.924Z,4.67
2023-03-20T08:32:03.960Z,4.88
2023-03-20T08:35:19.060Z,4.63
2023-03-20T08:38:31.825Z,4.50
2023-03-20T08:41:42.153Z,4.45
2023-03-20T08:44:45.986Z,4.37
2023-03-20T08:47:49.524Z,4.20
2023-03-20T08:50:53.158Z,4.50
2023-03-20T08:54:00.237Z,4.72
2023-03-20T08:57:04.410Z,4.60
2023-03-20T09:00:09.928Z,4.17
2023-03-20T09:03:15.707Z,4.28
2023-03-20T09:06:19.353Z,4.95
2023-03-20T09:09:29.675Z,4.90
2023-03-20T09:12:33.894Z,4.68
2023-03-20T09:15:38.389Z,4.40
2023-03-20T09:18:42.624Z,4.45
2023-03-20T09:21:47.175Z,4.78
2023-03-20T09:24:50.715Z,4.82
2023-03-20T09:27:56.940Z,5.03
2023-03-20T09:31:01.375Z,5.53
2023-03-20T09:34:05.096Z,5.50
2023-03-20T09:37:11.776Z,5.45
2023-03-20T09:40:30.024Z,4.47
2023-03-20T09:44:18.411Z,5.30
2023-03-20T09:47:40.749Z,4.77
2023-03-20T09:51:03.997Z,4.80
2023-03-20T09:54:53.323Z,4.88
2023-03-20T09:58:03.769Z,5.07
2023-03-20T10:01:12.742Z,5.28
2023-03-20T10:04:16.694Z,4.60
2023-03-20T10:07:20.910Z,5.03
2023-03-20T10:10:38.493Z,5.18
2023-03-20T10:14:14.472Z,4.28
2023-03-20T10:17:46.780Z,5.47
2023-03-20T10:21:04.969Z,5.27
2023-03-20T10:24:19.781Z,4.72
2023-03-20T10:27:28.215Z,5.15
2023-03-20T10:31:13.122Z,5.10
2023-03-20T10:34:55.378Z,4.60
2023-03-20T10:38:07.626Z,4.47
2023-03-20T10:41:18.254Z,4.82
2023-03-20T10:44:46.197Z,5.30
2023-03-20T10:47:55.100Z,5.13
2023-03-20T10:51:04.860Z,4.85
2023-03-20T10:54:27.158Z,4.60
2023-03-20T10:57:35.897Z,4.30
2023-03-20T11:00:40.850Z,3.83
2023-03-20T11:03:44.396Z,4.45
2023-03-20T11:07:09.322Z,4.40
2023-03-20T11:10:17.163Z,4.50
2023-03-20T11:13:29.491Z,4.28
2023-03-20T11:16:37.253Z,4.15
2023-03-20T11:19:42.400Z,4.70
2023-03-20T11:22:48.994Z,4.35
2023-03-20T11:26:07.171Z,4.53
2023-03-20T11:29:31.464Z,4.95
2023-03-20T11:32:40.307Z,5.40
2023-03-20T11:35:48.008Z,4.88
2023-03-20T11:38:54.080Z,4.35
2023-03-20T11:42:02.277Z,4.70
2023-03-20T11:45:16.715Z,4.68
2023-03-20T11:48:45.885Z,4.90
2023-03-20T11:51:49.324Z,5.13
2023-03-20T11:54:56.905Z,4.45
2023-03-20T11:58:03.337Z,4.33
2023-03-20T12:01:10.156Z,4.97
2023-03-20T12:04:42.155Z,4.95
2023-03-20T12:07:49.338Z,4.22
2023-03-20T12:11:22.150Z,5.18
2023-03-20T12:14:28.908Z,4.63
2023-03-20T12:17:59.566Z,5.28
2023-03-20T12:21:07.547Z,4.20
2023-03-20T12:24:14.289Z,4.95
2023-03-20T12:27:26.836Z,5.60
2023-03-20T12:31:00.612Z,5.03
2023-03-20T12:34:34.972Z,4.45
2023-03-20T12:37:38.559Z,4.10
2023-03-20T12:40:46.360Z,5.03
2023-03-20T12:44:04.622Z,4.50
2023-03-20T12:47:41.974Z,4.57
2023-03-20T12:50:50.551Z,4.75
2023-03-20T12:54:21.636Z,5.13
2023-03-20T12:58:02.444Z,5.00
2023-03-20T13:01:19.617Z,5.20
2023-03-20T13:04:50.273Z,4.20
2023-03-20T13:08:00.132Z,5.47
2023-03-20T13:11:30.643Z,4.93
2023-03-20T13:14:57.541Z,4.90
2023-03-20T13:18:24.207Z,4.60
2023-03-20T13:21:30.439Z,4.33
2023-03-20T13:24:43.855Z,3.40
2023-03-20T13:28:07.334Z,3.53
2023-03-20T13:31:34.946Z,3.58
2023-03-20T13:35:03.681Z,3.75
2023-03-20T13:38:21.766Z,3.63
2023-03-20T13:41:27.777Z,3.97
2023-03-20T13:44:33.870Z,3.58
2023-03-20T13:47:41.497Z,3.15
2023-03-20T13:51:10.379Z,3.70
2023-03-20T13:54:53.948Z,3.77
2023-03-20T13:58:21.682Z,3.85
2023-03-20T14:01:40.524Z,4.03
2023-03-20T14:04:45.037Z,3.88
2023-03-20T14:07:55.251Z,3.97
2023-03-20T14:11:13.187Z,4.20
2023-03-20T14:14:25.142Z,3.92
2023-03-20T14:17:30.912Z,4.07
2023-03-20T14:20:42.089Z,4.22
2023-03-20T14:23:50.855Z,4.07
2023-03-20T14:27:01.564Z,3.57
2023-03-20T14:30:39.189Z,3.22
2023-03-20T14:33:44.830Z,2.72
2023-03-20T14:36:58.890Z,3.15
2023-03-20T14:40:20.151Z,3.17
2023-03-20T14:43:43.023Z,3.10
2023-03-20T14:47:10.636Z,3.90
2023-03-20T14:50:39.872Z,3.45
2023-03-20T14:53:43.410Z,3.88
2023-03-20T14:56:47.017Z,4.55
2023-03-20T14:59:50.727Z,4.70
2023-03-20T15:03:08.299Z,4.47
2023-03-20T15:06:12.601Z,4.03
2023-03-20T15:09:16.558Z,4.80
2023-03-20T15:12:24.731Z,4.35
2023-03-20T15:15:31.824Z,4.33
2023-03-20T15:18:41.112Z,4.78
2023-03-20T15:21:45.788Z,4.65
2023-03-20T15:24:55.839Z,4.95
2023-03-20T15:27:59.147Z,5.00
2023-03-20T15:31:02.909Z,3.97
2023-03-20T15:34:19.912Z,4.78
2023-03-20T15:37:25.123Z,5.38
2023-03-20T15:40:49.298Z,5.03
2023-03-20T15:43:54.179Z,4.75
2023-03-20T15:47:10.128Z,5.37
2023-03-20T15:50:16.141Z,5.65
2023-03-20T15:53:26.657Z,5.72
2023-03-20T15:56:29.653Z,4.65
2023-03-20T15:59:34.786Z,5.20
2023-03-20T16:02:38.330Z,5.07
2023-03-20T16:05:44.780Z,5.10
2023-03-20T16:08:58.772Z,6.18
2023-03-20T16:12:03.815Z,5.22
2023-03-20T16:15:07.519Z,6.20
2023-03-20T16:18:15.063Z,5.73
2023-03-20T16:21:49.873Z,5.53
2023-03-20T16:24:58.126Z,5.70
2023-03-20T16:28:01.871Z,5.68
2023-03-20T16:31:18.670Z,6.00
2023-03-20T16:34:31.234Z,5.93
2023-03-20T16:37:44.712Z,5.53
2023-03-20T16:40:49.804Z,5.25
2023-03-20T16:43:57.129Z,6.28
2023-03-20T16:47:06.632Z,6.40
2023-03-20T16:50:19.414Z,5.87
2023-03-20T16:53:24.953Z,5.60
2023-03-20T16:56:40.719Z,5.32
2023-03-20T16:59:44.391Z,5.85
2023-03-20T17:02:52.515Z,5.25
2023-03-20T17:06:04.602Z,11.37
2023-03-20T17:09:13.823Z,11.45
2023-03-20T17:12:18.374Z,14.32
2023-03-20T17:15:24.228Z,7.78
2023-03-20T17:18:29.353Z,7.18
2023-03-20T17:21:32.767Z,7.20
2023-03-20T17:24:35.946Z,9.27
2023-03-20T17:27:41.671Z,17.27
2023-03-20T17:30:46.130Z,9.82
2023-03-20T17:33:49.145Z,8.38
2023-03-20T17:36:52.538Z,6.33
2023-03-20T17:39:56.551Z,7.45
2023-03-20T17:42:59.965Z,7.22
2023-03-20T17:46:03.431Z,6.97
2023-03-20T17:49:12.705Z,6.93
2023-03-20T17:52:18.731Z,7.63
2023-03-20T17:55:23.784Z,8.73
2023-03-20T17:58:27.606Z,9.13
2023-03-20T18:01:32.829Z,11.32
2023-03-20T18:04:36.740Z,12.38
2023-03-20T18:07:40.147Z,14.50
2023-03-20T18:10:44.391Z,15.05
2023-03-20T18:13:47.673Z,14.82
2023-03-20T18:16:50.982Z,11.43
2023-03-20T18:19:54.231Z,11.52
2023-03-20T18:22:57.686Z,11.33
2023-03-20T18:26:02.028Z,11.32
2023-03-20T18:29:05.384Z,12.07
2023-03-20T18:32:09.436Z,12.43
2023-03-20T18:35:13.152Z,11.70
2023-03-20T18:38:16.591Z,12.73
2023-03-20T18:41:20.745Z,12.30
2023-03-20T18:44:24.454Z,11.38
2023-03-20T18:47:27.899Z,10.70
2023-03-20T18:50:37.609Z,11.25
2023-03-20T18:53:42.882Z,11.20
2023-03-20T18:56:46.066Z,10.65
2023-03-20T18:59:50.434Z,9.27
2023-03-20T19:02:55.909Z,10.80
2023-03-20T19:05:59.773Z,10.73
2023-03-20T19:09:05.950Z,10.90
2023-03-20T19:12:09.259Z,11.13
2023-03-20T19:15:13.138Z,10.75
2023-03-20T19:18:19.672Z,10.60
2023-03-20T19:21:26.386Z,9.45
2023-03-20T19:24:29.908Z,10.17
2023-03-20T19:27:32.980Z,11.10
2023-03-20T19:30:39.206Z,10.07
2023-03-20T19:33:43.943Z,10.07
2023-03-20T19:36:50.814Z,11.57
2023-03-20T19:39:54.625Z,9.87
2023-03-20T19:43:02.794Z,10.40
2023-03-20T19:46:28.527Z,9.93
2023-03-20T19:49:39.930Z,9.50
2023-03-20T19:52:43.252Z,9.47
2023-03-20T19:55:47.871Z,7.77
2023-03-20T19:58:57.157Z,8.55
2023-03-20T20:02:01.621Z,8.07
2023-03-20T20:10:12.423Z,8.17
2023-03-20T20:13:21.256Z,7.00
2023-03-20T20:16:24.603Z,7.18
2023-03-20T20:19:28.585Z,7.03
2023-03-20T20:22:32.882Z,7.15
2023-03-20T20:25:36.770Z,7.15
2023-03-20T20:28:40.509Z,6.03
2023-03-20T20:31:44.500Z,5.97
2023-03-20T20:38:40.929Z,6.53
2023-03-20T20:41:36.813Z,6.55
2023-03-20T20:44:41.040Z,6.10
2023-03-20T20:47:46.280Z,7.00
2023-03-20T20:50:50.373Z,6.70
2023-03-20T20:53:53.881Z,6.00
2023-03-20T20:56:57.218Z,5.72
2023-03-20T21:00:00.889Z,6.17
2023-03-20T21:03:04.570Z,6.72
2023-03-20T21:06:08.151Z,7.00
2023-03-20T21:09:11.520Z,6.60
2023-03-20T21:12:30.717Z,10.10
2023-03-20T21:15:39.628Z,7.47
2023-03-20T21:18:45.484Z,9.25
2023-03-20T21:21:49.067Z,8.60
2023-03-20T21:25:00.753Z,8.02
2023-03-20T21:28:10.994Z,7.43
2023-03-20T21:31:26.551Z,6.83
2023-03-20T21:34:31.439Z,7.60
2023-03-20T21:41:07.392Z,6.60
2023-03-20T21:44:16.605Z,6.20
2023-03-20T21:48:13.212Z,6.43
2023-03-20T21:51:15.151Z,8.40
2023-03-20T22:05:13.408Z,5.67
2023-03-20T22:08:24.193Z,6.95
2023-03-20T22:15:16.378Z,5.80
2023-03-20T22:18:50.748Z,6.10
2023-03-20T22:22:00.157Z,7.33
2023-03-20T22:28:51.514Z,7.10
2023-03-20T22:35:38.816Z,5.93
2023-03-20T22:39:04.068Z,6.83
2023-03-20T22:46:54.044Z,6.75
2023-03-20T22:50:00.538Z,6.13
2023-03-20T22:53:03.970Z,5.97
2023-03-20T22:56:07.488Z,5.13
2023-03-20T22:59:10.523Z,5.55
2023-03-20T23:02:13.900Z,4.75
2023-03-20T23:05:18.553Z,4.88
2023-03-20T23:08:28.098Z,4.93
2023-03-20T23:11:31.828Z,4.60
2023-03-20T23:14:45.476Z,5.10
2023-03-20T23:17:52.182Z,4.97
2023-03-20T23:20:59.327Z,4.65
2023-03-20T23:24:02.539Z,4.73
2023-03-20T23:27:05.787Z,5.00
2023-03-20T23:30:10.379Z,3.83
2023-03-20T23:33:13.836Z,4.57
2023-03-20T23:36:34.606Z,4.28
2023-03-20T23:39:39.514Z,4.27
2023-03-20T23:42:42.902Z,4.73
2023-03-20T23:45:47.398Z,4.70
2023-03-20T23:48:50.560Z,3.92
2023-03-20T23:51:53.757Z,4.50
2023-03-20T23:54:56.879Z,4.90
2023-03-20T23:58:00.708Z,4.37
